Latest Weather Observations for Mareeba

IDQ60801

Issued at 4:02 pm EST Wednesday 22 February 2017 (issued every 30 minutes, with the page automatically refreshed every 10 minutes)

About weather observations | Map of weather stations | Latest weather observations for QLD | Other Formats
Station Details ID: 031210 Name: MAREEBA AIRPORT Lat: -17.07 Lon: 145.43 Height: 471.93 m
Data from the previous 72 hours. | See also: Recent months at Mareeba
Date/Time
EST
Temp
°C
App
Temp
°C
Dew
Point
°C
Rel
Hum
%
Delta-T
°C
Wind Press
QNH
hPa
Press
MSL
hPa
Rain since
9am
mm
Dir  Spd
km/h
Gust
km/h
Spd
kts
Gust
kts
22/04:00pm 27.2 28.0 19.8 64 4.9 S 15 20 8 11 1012.3 - 0.0
22/03:30pm 28.1 27.9 19.3 58 5.8 ESE 19 26 10 14 1012.5 - 0.0
22/03:00pm 30.1 30.8 20.4 56 6.5 NNE 17 30 9 16 1012.4 1009.2 0.0
22/02:30pm 30.3 30.3 18.1 48 8.0 NNE 15 24 8 13 1012.7 - 0.0
22/02:00pm 29.5 30.1 18.6 52 7.1 ENE 13 20 7 11 1013.2 - 0.0
22/01:30pm 30.8 31.6 19.8 52 7.4 NE 15 24 8 13 1013.5 - 0.0
22/01:00pm 30.1 30.1 18.2 49 7.8 NE 15 24 8 13 1013.9 - 0.0
22/12:30pm 29.9 30.3 19.9 55 6.7 NNE 17 24 9 13 1014.4 - 0.0
22/12:00pm 29.4 29.8 19.1 54 6.8 NNE 15 22 8 12 1014.7 1011.6 0.0
22/11:30am 29.0 29.8 19.0 54 6.6 NNE 13 20 7 11 1014.9 - 0.0
22/11:00am 28.7 30.9 19.6 58 6.0 N 7 13 4 7 1015.1 - 0.0
22/10:30am 28.7 30.7 19.1 56 6.3 N 7 13 4 7 1015.4 - 0.0
22/10:00am 27.5 30.0 20.3 65 4.8 ENE 7 11 4 6 1015.6 - 0.0
22/09:30am 26.5 29.0 21.0 72 3.7 ESE 9 13 5 7 1015.7 - 0.0
22/09:00am 26.3 27.4 20.4 70 3.9 SE 15 17 8 9 1015.5 1012.3 5.0
22/08:30am 25.5 27.8 21.4 78 2.8 SSE 11 15 6 8 1015.5 - 5.0
22/08:00am 24.4 26.1 20.9 81 2.3 ESE 13 19 7 10 1015.5 - 5.0
22/07:30am 22.5 25.0 21.1 92 0.9 SSE 9 11 5 6 1015.5 - 5.0
22/07:00am 21.9 26.4 21.6 98 0.2 CALM 0 0 0 0 1015.2 - 5.0
22/06:30am 21.3 25.4 20.8 97 0.3 CALM 0 6 0 3 1015.0 - 5.0
22/06:00am 21.5 24.2 20.7 95 0.5 ESE 7 9 4 5 1014.7 1011.6 5.0
22/05:30am 21.4 24.9 20.4 94 0.7 S 2 6 1 3 1014.6 - 5.0
22/05:00am 21.7 25.8 20.7 94 0.7 CALM 0 0 0 0 1014.2 - 5.0
22/04:30am 22.0 25.0 20.8 93 0.8 ESE 6 9 3 5 1013.9 - 5.0
22/04:00am 22.0 25.2 20.6 92 0.9 ESE 4 7 2 4 1013.9 - 4.8
22/03:30am 22.3 26.1 20.9 92 0.9 SE 2 6 1 3 1014.0 - 4.8
22/03:00am 22.3 25.3 20.9 92 0.9 SSE 6 9 3 5 1014.3 1011.1 4.8
22/02:30am 22.5 25.4 21.0 91 1.0 ESE 7 9 4 5 1014.5 - 4.8
22/02:00am 22.4 25.6 21.2 93 0.8 SE 6 7 3 4 1014.6 - 4.8
22/01:30am 22.4 24.7 21.4 94 0.7 SE 11 15 6 8 1014.8 - 4.8
22/01:00am 22.6 25.3 22.1 97 0.3 SE 11 15 6 8 1015.6 - 4.8
22/12:30am 22.6 27.5 22.3 98 0.2 CALM 0 0 0 0 1015.9 - 4.8
22/12:00am 22.5 27.3 22.2 98 0.2 CALM 0 0 0 0 1016.4 1013.3 4.8
 
Date/Time
EST
Temp
°C
App
Temp
°C
Dew
Point
°C
Rel
Hum
%
Delta-T
°C
Wind Press
QNH
hPa
Press
MSL
hPa
Rain since
9am
mm
Dir  Spd
km/h
Gust
km/h
Spd
kts
Gust
kts
21/11:30pm 22.6 26.2 22.1 97 0.3 NNW 6 9 3 5 1016.8 - 4.8
21/11:00pm 22.9 27.5 22.4 97 0.3 SSE 2 6 1 3 1016.5 - 4.8
21/10:30pm 22.6 26.1 21.9 96 0.5 S 6 7 3 4 1016.6 - 4.4
21/10:00pm 22.7 26.5 21.7 94 0.7 E 4 9 2 5 1016.9 - 2.8
21/09:30pm 22.9 25.9 21.2 90 1.1 N 7 15 4 8 1016.6 - 1.4
21/09:00pm 23.8 26.3 20.3 81 2.3 E 7 11 4 6 1016.2 1013.0 0.0
21/08:30pm 24.1 25.3 20.0 78 2.7 E 13 19 7 10 1015.9 - 0.0
21/08:00pm 24.7 26.9 20.4 77 2.9 NE 9 17 5 9 1015.9 - 0.0
21/07:30pm 25.1 28.2 21.4 80 2.5 NNE 7 11 4 6 1015.4 - 0.0
21/07:00pm 25.4 27.9 21.1 77 2.9 NNE 9 15 5 8 1014.8 - 0.0
21/06:30pm 26.0 28.2 20.3 71 3.8 NNE 9 13 5 7 1014.6 - 0.0
21/06:00pm 26.8 28.3 19.7 65 4.7 NNE 11 19 6 10 1014.1 1010.9 0.0
21/05:30pm 27.3 27.9 18.6 59 5.7 NNE 13 20 7 11 1013.2 - 0.0
21/05:00pm 27.8 27.4 18.8 58 5.9 NNE 19 28 10 15 1012.9 - 0.0
21/04:30pm 28.4 27.8 18.5 55 6.5 NNE 19 28 10 15 1012.5 - 0.0
21/04:00pm 28.8 28.5 19.1 55 6.4 NE 19 30 10 16 1012.1 - 0.0
21/03:30pm 29.2 29.8 19.5 56 6.4 NE 15 22 8 12 1012.2 - 0.0
21/03:00pm 29.7 29.9 19.4 54 6.8 NE 17 30 9 16 1012.0 1008.8 0.0
21/02:30pm 30.0 30.2 19.4 53 7.0 NE 17 26 9 14 1012.5 - 0.0
21/02:00pm 29.6 29.1 18.7 52 7.2 NNE 19 28 10 15 1012.9 - 0.0
21/01:30pm 30.0 30.6 19.4 53 7.0 NNE 15 24 8 13 1013.4 - 0.0
21/01:00pm 30.0 30.3 18.8 51 7.4 NNE 15 24 8 13 1013.7 - 0.0
21/12:30pm 30.7 31.0 19.7 52 7.3 NNE 17 28 9 15 1014.0 - 0.0
21/12:00pm 30.8 31.8 19.5 51 7.5 NNE 13 22 7 12 1014.4 1011.2 0.0
21/11:30am 30.2 31.9 21.0 58 6.2 NNE 13 26 7 14 1014.8 - 0.0
21/11:00am 29.6 30.8 19.9 56 6.5 N 13 20 7 11 1014.9 - 0.0
21/10:30am 29.0 31.6 20.4 59 5.8 NNE 7 13 4 7 1015.1 - 0.0
21/10:00am 27.8 30.2 20.9 66 4.6 NE 9 15 5 8 1015.4 - 0.0
21/09:30am 27.5 30.7 20.6 66 4.6 W 4 13 2 7 1015.6 - 0.0
21/09:00am 27.3 30.7 20.9 68 4.3 ENE 4 11 2 6 1015.5 1012.3 0.0
21/08:30am 25.7 29.8 20.7 74 3.3 CALM 0 6 0 3 1015.5 - 0.0
21/08:00am 24.9 28.0 21.0 79 2.6 SSE 6 7 3 4 1014.9 - 0.0
21/07:30am 23.8 26.8 21.3 86 1.7 SE 7 7 4 4 1014.5 - 0.0
21/07:00am 23.0 26.2 21.3 90 1.1 SE 6 7 3 4 1014.2 - 0.0
21/06:30am 22.5 25.6 21.1 92 0.9 SSE 6 9 3 5 1013.7 - 0.0
21/06:00am 22.7 25.8 21.5 93 0.8 SE 7 9 4 5 1013.4 1010.2 0.0
21/05:30am 22.6 26.0 21.6 94 0.7 SE 6 7 3 4 1012.9 - 0.0
21/05:00am 22.7 27.3 21.7 94 0.7 CALM 0 0 0 0 1012.6 - 0.0
21/04:30am 22.9 27.6 21.9 94 0.7 CALM 0 4 0 2 1012.4 - 0.0
21/04:00am 23.2 26.9 22.2 94 0.7 SE 6 7 3 4 1012.4 - 0.0
21/03:30am 23.3 28.3 22.5 95 0.5 CALM 0 7 0 4 1012.4 - 0.0
21/03:00am 23.4 28.5 22.6 95 0.5 CALM 0 0 0 0 1012.5 1009.3 0.0
21/02:30am 23.5 28.6 22.7 95 0.5 CALM 0 0 0 0 1012.8 - 0.0
21/02:00am 23.5 28.7 22.8 96 0.5 CALM 0 0 0 0 1012.9 - 0.0
21/01:30am 23.4 27.3 22.9 97 0.3 S 7 9 4 5 1013.2 - 0.0
21/01:00am 23.4 27.9 22.9 97 0.3 WSW 4 7 2 4 1013.7 - 0.0
21/12:30am 23.5 27.8 22.7 95 0.5 WNW 4 7 2 4 1014.1 - 0.0
21/12:00am 23.9 29.1 22.9 94 0.7 CALM 0 4 0 2 1014.5 1011.4 0.0
 
Date/Time
EST
Temp
°C
App
Temp
°C
Dew
Point
°C
Rel
Hum
%
Delta-T
°C
Wind Press
QNH
hPa
Press
MSL
hPa
Rain since
9am
mm
Dir  Spd
km/h
Gust
km/h
Spd
kts
Gust
kts
20/11:30pm 24.1 29.2 22.7 92 1.0 CALM 0 6 0 3 1014.6 - 0.0
20/11:00pm 24.1 28.7 22.4 90 1.2 NE 2 7 1 4 1014.6 - 0.0
20/10:30pm 24.0 28.6 22.4 91 1.1 NW 2 6 1 3 1014.7 - 0.0
20/10:00pm 24.2 28.1 22.5 90 1.2 N 6 9 3 5 1014.6 - 0.0
20/09:30pm 24.7 27.8 22.8 89 1.3 N 11 19 6 10 1014.8 - 0.0
20/09:00pm 25.2 30.1 22.3 84 2.0 CALM 0 6 0 3 1014.6 1011.5 0.0
20/08:30pm 25.3 29.2 21.8 81 2.4 N 4 7 2 4 1014.3 - 0.0
20/08:00pm 25.3 28.7 21.6 80 2.5 NNE 6 9 3 5 1013.9 - 0.0
20/07:30pm 25.8 28.7 21.0 75 3.2 NNE 7 15 4 8 1012.9 - 0.0
20/07:00pm 26.2 28.5 20.7 71 3.7 NE 9 15 5 8 1012.2 - 0.0
20/06:30pm 26.8 28.4 19.9 66 4.6 NNE 11 22 6 12 1011.9 - 0.0
20/06:00pm 27.5 27.8 18.8 59 5.7 NNE 15 22 8 12 1011.6 1008.4 0.0
20/05:30pm 28.0 28.4 18.1 55 6.4 NNE 13 22 7 12 1011.2 - 0.0
20/05:00pm 28.8 28.8 18.9 55 6.5 NE 17 24 9 13 1010.6 - 0.0
20/04:30pm 29.5 29.3 18.6 52 7.1 NE 17 30 9 16 1010.4 - 0.0
20/04:00pm 30.6 30.4 17.7 46 8.4 NE 15 28 8 15 1010.4 - 0.0
20/03:30pm 30.9 30.4 17.9 45 8.5 NE 17 26 9 14 1010.1 - 0.0
20/03:00pm 31.0 30.5 17.0 43 9.0 NNE 15 22 8 12 1010.2 1007.0 0.0
20/02:30pm 31.0 31.1 18.4 47 8.3 NE 15 28 8 15 1010.4 - 0.0
20/02:00pm 30.7 29.9 17.0 43 8.8 NE 17 24 9 13 1010.7 - 0.0
20/01:30pm 30.8 30.7 17.8 45 8.5 NE 15 24 8 13 1011.2 - 0.0
20/01:00pm 30.7 30.5 17.7 45 8.4 NNE 15 22 8 12 1011.4 - 0.0
20/12:30pm 30.1 29.2 16.9 45 8.5 NNE 17 22 9 12 1012.0 - 0.0
20/12:00pm 29.9 30.1 17.7 48 7.9 ENE 13 22 7 12 1012.1 1008.9 0.0
20/11:30am 29.5 29.8 18.0 50 7.5 NNE 13 19 7 10 1012.5 - 0.0
20/11:00am 29.1 30.3 19.1 54 6.6 NNE 11 19 6 10 1012.8 - 0.0
20/10:30am 28.7 31.1 19.6 58 6.0 N 6 13 3 7 1013.1 - 0.0
20/10:00am 28.1 30.3 19.3 58 5.8 NNE 6 15 3 8 1013.3 - 0.0
20/09:30am 27.6 29.3 18.0 55 6.2 ENE 6 13 3 7 1013.3 - 0.0
20/09:00am 26.6 29.7 18.7 62 5.1 CALM 0 7 0 4 1013.2 1010.0 1.0
20/08:30am 25.8 27.7 17.7 61 5.2 SE 4 7 2 4 1012.9 - 1.0
20/08:00am 24.3 26.7 20.0 77 2.8 E 7 11 4 6 1012.3 - 1.0
20/07:30am 22.2 26.3 20.7 91 1.0 CALM 0 0 0 0 1012.3 - 1.0
20/07:00am 21.2 25.1 20.4 95 0.5 CALM 0 0 0 0 1011.8 - 1.0
20/06:30am 20.9 24.7 20.2 96 0.5 CALM 0 0 0 0 1011.5 - 1.0
20/06:00am 20.9 24.7 20.1 95 0.5 CALM 0 0 0 0 1011.2 1008.0 1.0
20/05:30am 20.8 24.1 20.0 95 0.5 SSE 2 6 1 3 1010.9 - 1.0
20/05:00am 21.0 24.5 19.5 91 1.0 CALM 0 0 0 0 1010.9 - 1.0
20/04:30am 20.9 23.1 19.6 92 0.8 NW 7 9 4 5 1010.7 - 1.0
20/04:00am 21.0 23.7 19.5 91 1.0 SE 4 7 2 4 1010.3 - 1.0
20/03:30am 21.0 23.2 19.1 89 1.2 S 6 7 3 4 1010.5 - 1.0
20/03:00am 21.4 23.2 18.8 85 1.7 SW 7 11 4 6 1011.0 1007.8 1.0
20/02:30am 21.3 23.2 19.0 87 1.5 SW 7 11 4 6 1011.4 - 1.0
20/02:00am 21.2 23.4 19.1 88 1.4 WNW 6 7 3 4 1011.8 - 1.0
20/01:30am 21.6 24.7 20.2 92 0.9 WNW 4 11 2 6 1011.7 - 1.0
20/01:00am 21.7 24.6 19.8 89 1.2 N 4 7 2 4 1011.8 - 1.0
20/12:30am 21.8 24.1 19.9 89 1.2 SE 7 9 4 5 1012.0 - 1.0
20/12:00am 21.6 23.5 19.0 85 1.7 SW 7 9 4 5 1012.2 1009.0 1.0
 
Date/Time
EST
Temp
°C
App
Temp
°C
Dew
Point
°C
Rel
Hum
%
Delta-T
°C
Wind Press
QNH
hPa
Press
MSL
hPa
Rain since
9am
mm
Dir  Spd
km/h
Gust
km/h
Spd
kts
Gust
kts
19/11:30pm 22.3 24.2 19.7 85 1.7 N 9 20 5 11 1013.2 - 1.0
19/11:00pm 23.2 26.5 19.1 78 2.7 CALM 0 6 0 3 1013.3 - 1.0
19/10:30pm 23.5 24.8 19.2 77 2.8 W 11 17 6 9 1013.6 - 1.0
19/10:00pm 23.6 24.7 20.5 83 2.1 W 15 20 8 11 1013.6 - 1.0
19/09:30pm 24.1 26.5 20.8 82 2.2 WNW 9 13 5 7 1013.5 - 1.0
19/09:00pm 24.1 27.8 22.5 91 1.1 WSW 7 9 4 5 1013.2 1010.0 1.0
19/08:30pm 24.4 29.3 22.3 88 1.4 CALM 0 0 0 0 1012.3 - 1.0
19/08:00pm 24.4 29.0 21.7 85 1.8 CALM 0 0 0 0 1011.8 - 1.0
19/07:30pm 24.3 27.8 22.2 88 1.4 S 7 9 4 5 1011.5 - 1.0
19/07:00pm 24.5 27.9 21.6 84 2.0 SW 6 7 3 4 1011.2 - 1.0
19/06:30pm 24.8 29.2 21.3 81 2.4 CALM 0 0 0 0 1010.9 - 1.0
19/06:00pm 25.0 29.5 21.5 81 2.4 CALM 0 0 0 0 1010.3 1007.1 1.0
19/05:30pm 24.9 28.2 21.8 83 2.1 SSE 7 11 4 6 1010.0 - 1.0
19/05:00pm 24.4 27.5 22.1 87 1.6 S 9 11 5 6 1009.9 - 1.0
19/04:30pm 23.4 27.4 20.5 84 1.9 CALM 0 7 0 4 1009.7 - 0.8

Other Formats:

Comma delimited format used in spreadsheet applications
http://www.bom.gov.au/fwo/IDQ60801/IDQ60801.95286.axf

JavaScript Object Notation format (JSON) in row-major order
http://www.bom.gov.au/fwo/IDQ60801/IDQ60801.95286.json